Aviation Digital Data Service (ADDS)

Output produced by METARs form (1119 UTC 21 April 2018)
found at http://aviationweather.gov/adds/metars/
 
KPHL 210830Z 2109/2212 VRB04KT P6SM FEW250 
     FM211100 31007KT P6SM SCT220 
     FM211800 29011KT P6SM BKN220 
     FM220200 32007KT P6SM BKN220 
     FM220600 36005KT P6SM SCT220